Time,TemperatureF,DewpointF,PressureIn,WindDirection,WindDirectionDegrees,WindSpeedMPH,WindSpeedGustMPH,Humidity,HourlyPrecipIn,Conditions,Clouds,dailyrainin,SolarRadiationWatts/m^2,SoftwareType,DateUTC
2013-08-23 00:04:00,53.1,49.3,30.13,ENE,73,0.0,0.0,87,0.00,,SCT,0.00,0.00,VWS V14.01,2013-08-23 05:04:00,
2013-08-23 00:09:00,53.0,49.2,30.13,ENE,73,0.0,0.0,87,0.00,,SCT,0.00,0.00,VWS V14.01,2013-08-23 05:09:00,
2013-08-23 00:14:00,53.0,49.5,30.13,ENE,73,0.0,0.0,88,0.00,,SCT,0.00,0.00,VWS V14.01,2013-08-23 05:14:00,
2013-08-23 00:19:00,53.0,49.5,30.13,ENE,73,0.0,0.0,88,0.00,,SCT,0.00,0.00,VWS V14.01,2013-08-23 05:19:00,
2013-08-23 00:24:00,52.9,49.5,30.13,ENE,73,0.0,0.0,88,0.00,,SCT,0.00,0.00,VWS V14.01,2013-08-23 05:24:00,
2013-08-23 00:29:00,52.7,49.2,30.13,ENE,73,0.0,0.0,88,0.00,,SCT,0.00,0.00,VWS V14.01,2013-08-23 05:29:00,
2013-08-23 00:34:00,52.5,49.0,30.13,ENE,73,0.0,0.0,88,0.00,,SCT,0.00,0.00,VWS V14.01,2013-08-23 05:34:00,
2013-08-23 00:39:00,52.3,48.9,30.13,ENE,73,0.0,0.0,88,0.00,,SCT,0.00,0.00,VWS V14.01,2013-08-23 05:39:00,
2013-08-23 00:44:00,52.3,48.9,30.13,ENE,73,0.0,0.0,88,0.00,,SCT,0.00,0.00,VWS V14.01,2013-08-23 05:44:00,
2013-08-23 00:49:00,52.2,48.8,30.13,ENE,73,0.0,0.0,88,0.00,,SCT,0.00,0.00,VWS V14.01,2013-08-23 05:49:00,
2013-08-23 00:54:00,52.1,49.0,30.13,ENE,73,0.0,0.0,89,0.00,,SCT,0.00,0.00,VWS V14.01,2013-08-23 05:54:00,
2013-08-23 00:59:00,52.1,49.0,30.13,ENE,73,0.0,0.0,89,0.00,,SCT,0.00,0.00,VWS V14.01,2013-08-23 05:59:00,
2013-08-23 01:04:00,52.1,49.0,30.13,ENE,73,0.0,0.0,89,0.00,,SCT,0.00,0.00,VWS V14.01,2013-08-23 06:04:00,
2013-08-23 01:09:00,52.1,49.0,30.13,ENE,73,0.0,0.0,89,0.00,,SCT,0.00,0.00,VWS V14.01,2013-08-23 06:09:00,
2013-08-23 01:14:00,52.1,49.0,30.13,ENE,73,0.0,0.0,89,0.00,,SCT,0.00,0.00,VWS V14.01,2013-08-23 06:14:00,
2013-08-23 01:19:00,52.0,48.9,30.13,ENE,73,0.0,0.0,89,0.00,,SCT,0.00,0.00,VWS V14.01,2013-08-23 06:19:00,
2013-08-23 01:24:00,52.0,48.9,30.13,ENE,73,0.0,0.0,89,0.00,,SCT,0.00,0.00,VWS V14.01,2013-08-23 06:24:00,
2013-08-23 01:29:00,51.9,48.8,30.13,ENE,73,0.0,0.0,89,0.00,,SCT,0.00,0.00,VWS V14.01,2013-08-23 06:29:00,
2013-08-23 01:34:00,51.9,48.8,30.13,ENE,73,0.0,0.0,89,0.00,,SCT,0.00,0.00,VWS V14.01,2013-08-23 06:34:00,
2013-08-23 01:40:00,51.7,48.6,30.13,ENE,73,0.0,0.0,89,0.00,,SCT,0.00,0.00,VWS V14.01,2013-08-23 06:40:00,
2013-08-23 01:45:00,51.5,48.1,30.13,ENE,73,0.0,0.0,88,0.00,,SCT,0.00,0.00,VWS V14.01,2013-08-23 06:45:00,
2013-08-23 01:50:00,51.4,48.0,30.13,ENE,73,0.0,0.0,88,0.00,,SCT,0.00,0.00,VWS V14.01,2013-08-23 06:50:00,
2013-08-23 01:55:00,51.2,47.8,30.13,ENE,73,0.0,0.0,88,0.00,,SCT,0.00,0.00,VWS V14.01,2013-08-23 06:55:00,
2013-08-23 02:00:00,51.0,47.6,30.13,ENE,73,0.0,0.0,88,0.00,,SCT,0.00,0.00,VWS V14.01,2013-08-23 07:00:00,
2013-08-23 02:05:00,51.0,47.6,30.13,ENE,73,0.0,0.0,88,0.00,,SCT,0.00,0.00,VWS V14.01,2013-08-23 07:05:00,
2013-08-23 02:10:00,50.9,47.5,30.13,ENE,73,0.0,0.0,88,0.00,,SCT,0.00,0.00,VWS V14.01,2013-08-23 07:10:00,
2013-08-23 02:15:00,50.7,47.3,30.13,ENE,73,0.0,0.0,88,0.00,,SCT,0.00,0.00,VWS V14.01,2013-08-23 07:15:00,
2013-08-23 02:20:00,50.6,47.2,30.13,ENE,73,0.0,0.0,88,0.00,,SCT,0.00,0.00,VWS V14.01,2013-08-23 07:20:00,
2013-08-23 02:25:00,50.6,47.5,30.13,ENE,73,0.0,0.0,89,0.00,,SCT,0.00,0.00,VWS V14.01,2013-08-23 07:25:00,
2013-08-23 02:30:00,50.5,47.4,30.13,ENE,73,0.0,0.0,89,0.00,,SCT,0.00,0.00,VWS V14.01,2013-08-23 07:30:00,
2013-08-23 02:35:00,50.4,47.3,30.14,ENE,73,0.0,0.0,89,0.00,,SCT,0.00,0.00,VWS V14.01,2013-08-23 07:35:00,
2013-08-23 02:40:00,50.3,47.2,30.14,ENE,73,0.0,0.0,89,0.00,,SCT,0.00,0.00,VWS V14.01,2013-08-23 07:40:00,
2013-08-23 02:45:00,50.1,47.0,30.14,ENE,73,0.0,0.0,89,0.00,,SCT,0.00,0.00,VWS V14.01,2013-08-23 07:45:00,
2013-08-23 02:50:00,50.1,47.0,30.14,ENE,73,0.0,0.0,89,0.00,,SCT,0.00,0.00,VWS V14.01,2013-08-23 07:50:00,
2013-08-23 02:55:00,50.0,46.9,30.14,ENE,73,0.0,0.0,89,0.00,,SCT,0.00,0.00,VWS V14.01,2013-08-23 07:55:00,
2013-08-23 03:00:00,49.9,46.8,30.14,ENE,73,0.0,0.0,89,0.00,,SCT,0.00,0.00,VWS V14.01,2013-08-23 08:00:00,
2013-08-23 03:05:00,49.8,46.7,30.14,ENE,73,0.0,0.0,89,0.00,,SCT,0.00,0.00,VWS V14.01,2013-08-23 08:05:00,
2013-08-23 03:10:00,49.8,46.7,30.14,ENE,73,0.0,0.0,89,0.00,,SCT,0.00,0.00,VWS V14.01,2013-08-23 08:10:00,
2013-08-23 03:15:00,49.8,46.7,30.14,ENE,73,0.0,0.0,89,0.00,,SCT,0.00,0.00,VWS V14.01,2013-08-23 08:15:00,
2013-08-23 03:20:00,49.7,46.6,30.14,ENE,73,0.0,0.0,89,0.00,,SCT,0.00,0.00,VWS V14.01,2013-08-23 08:20:00,
2013-08-23 03:25:00,49.7,46.6,30.14,ENE,73,0.0,0.0,89,0.00,,SCT,0.00,0.00,VWS V14.01,2013-08-23 08:25:00,
2013-08-23 03:30:00,49.7,46.6,30.14,ENE,73,0.0,0.0,89,0.00,,SCT,0.00,0.00,VWS V14.01,2013-08-23 08:30:00,
2013-08-23 03:35:00,49.6,46.5,30.14,ENE,73,0.0,0.0,89,0.00,,SCT,0.00,0.00,VWS V14.01,2013-08-23 08:35:00,
2013-08-23 03:40:00,49.5,46.4,30.14,ENE,73,0.0,0.0,89,0.00,,SCT,0.00,0.00,VWS V14.01,2013-08-23 08:40:00,
2013-08-23 03:45:00,49.4,46.6,30.14,ENE,73,0.0,0.0,90,0.00,,SCT,0.00,0.00,VWS V14.01,2013-08-23 08:45:00,
2013-08-23 03:50:00,49.5,46.7,30.14,ENE,73,0.0,0.0,90,0.00,,SCT,0.00,0.00,VWS V14.01,2013-08-23 08:50:00,
2013-08-23 03:55:00,49.5,46.7,30.14,ENE,73,0.0,0.0,90,0.00,,SCT,0.00,0.00,VWS V14.01,2013-08-23 08:55:00,
2013-08-23 04:00:00,49.5,46.7,30.14,ENE,73,0.0,0.0,90,0.00,,SCT,0.00,0.00,VWS V14.01,2013-08-23 09:00:00,
2013-08-23 04:05:00,49.5,46.7,30.14,ENE,73,0.0,0.0,90,0.00,,SCT,0.00,0.00,VWS V14.01,2013-08-23 09:05:00,
2013-08-23 04:10:00,49.4,46.6,30.14,ENE,73,0.0,0.0,90,0.00,,SCT,0.00,0.00,VWS V14.01,2013-08-23 09:10:00,
2013-08-23 04:15:00,49.3,46.2,30.14,ENE,73,0.0,0.0,89,0.00,,SCT,0.00,0.00,VWS V14.01,2013-08-23 09:15:00,
2013-08-23 04:20:00,49.2,46.1,30.14,ENE,73,0.0,0.0,89,0.00,,SCT,0.00,0.00,VWS V14.01,2013-08-23 09:20:00,
2013-08-23 04:25:00,49.2,46.1,30.15,ENE,73,0.0,0.0,89,0.00,,SCT,0.00,0.00,VWS V14.01,2013-08-23 09:25:00,
2013-08-23 04:30:00,49.2,46.4,30.14,ENE,73,0.0,0.0,90,0.00,,SCT,0.00,0.00,VWS V14.01,2013-08-23 09:30:00,
2013-08-23 04:35:00,49.4,46.6,30.14,ENE,73,0.0,0.0,90,0.00,,SCT,0.00,0.00,VWS V14.01,2013-08-23 09:35:00,
2013-08-23 04:40:00,49.5,46.7,30.15,ENE,73,0.0,0.0,90,0.00,,SCT,0.00,0.00,VWS V14.01,2013-08-23 09:40:00,
2013-08-23 04:45:00,49.5,46.7,30.14,ENE,73,0.0,0.0,90,0.00,,SCT,0.00,0.00,VWS V14.01,2013-08-23 09:45:00,
2013-08-23 04:50:00,49.4,46.6,30.15,ENE,73,0.0,0.0,90,0.00,,SCT,0.00,0.00,VWS V14.01,2013-08-23 09:50:00,
2013-08-23 04:55:00,49.2,46.1,30.15,ENE,73,0.0,0.0,89,0.00,,SCT,0.00,0.00,VWS V14.01,2013-08-23 09:55:00,
2013-08-23 05:00:00,49.2,46.1,30.15,ENE,73,0.0,0.0,89,0.00,,SCT,0.00,0.00,VWS V14.01,2013-08-23 10:00:00,
2013-08-23 05:05:00,49.2,46.4,30.15,ENE,73,0.0,0.0,90,0.00,,SCT,0.00,0.00,VWS V14.01,2013-08-23 10:05:00,
2013-08-23 05:10:00,49.2,46.4,30.15,ENE,73,0.0,0.0,90,0.00,,SCT,0.00,0.00,VWS V14.01,2013-08-23 10:10:00,
2013-08-23 05:15:00,49.2,46.4,30.15,ENE,73,0.0,0.0,90,0.00,,SCT,0.00,0.00,VWS V14.01,2013-08-23 10:15:00,
2013-08-23 05:20:00,49.2,46.4,30.15,ENE,73,0.0,0.0,90,0.00,,SCT,0.00,0.00,VWS V14.01,2013-08-23 10:20:00,
2013-08-23 05:26:00,49.2,46.4,30.15,ENE,73,0.0,0.0,90,0.00,,SCT,0.00,0.00,VWS V14.01,2013-08-23 10:26:00,
2013-08-23 05:31:00,49.0,46.2,30.15,ENE,73,0.0,0.0,90,0.00,,SCT,0.00,0.00,VWS V14.01,2013-08-23 10:31:00,
2013-08-23 05:36:00,48.9,46.1,30.15,ENE,73,0.0,0.0,90,0.00,,SCT,0.00,0.00,VWS V14.01,2013-08-23 10:36:00,
2013-08-23 05:41:00,48.8,46.0,30.15,ENE,73,0.0,0.0,90,0.00,,SCT,0.00,0.00,VWS V14.01,2013-08-23 10:41:00,
2013-08-23 05:46:00,48.8,46.0,30.15,ENE,73,0.0,0.0,90,0.00,,SCT,0.00,0.00,VWS V14.01,2013-08-23 10:46:00,
2013-08-23 05:51:00,48.8,46.0,30.15,ENE,73,0.0,0.0,90,0.00,,SCT,0.00,0.00,VWS V14.01,2013-08-23 10:51:00,
2013-08-23 05:56:00,48.7,45.9,30.16,ENE,73,0.0,0.0,90,0.00,,SCT,0.00,0.00,VWS V14.01,2013-08-23 10:56:00,
2013-08-23 06:01:00,48.6,45.8,30.16,ENE,73,0.0,0.0,90,0.00,,SCT,0.00,0.00,VWS V14.01,2013-08-23 11:01:00,
2013-08-23 06:06:00,48.6,45.8,30.16,ENE,73,0.0,0.0,90,0.00,,SCT,0.00,0.00,VWS V14.01,2013-08-23 11:06:00,
2013-08-23 06:11:00,48.6,45.8,30.16,ENE,73,0.0,0.0,90,0.00,,SCT,0.00,0.00,VWS V14.01,2013-08-23 11:11:00,
2013-08-23 06:16:00,48.7,45.9,30.16,ENE,73,0.0,0.0,90,0.00,,SCT,0.00,0.00,VWS V14.01,2013-08-23 11:16:00,
2013-08-23 06:21:00,48.7,45.9,30.16,ENE,73,0.0,0.0,90,0.00,,SCT,0.00,5.00,VWS V14.01,2013-08-23 11:21:00,
2013-08-23 06:26:00,48.6,45.8,30.16,ENE,73,0.0,0.0,90,0.00,,SCT,0.00,7.00,VWS V14.01,2013-08-23 11:26:00,
2013-08-23 06:31:00,48.6,45.8,30.16,ENE,73,0.0,0.0,90,0.00,,SCT,0.00,9.00,VWS V14.01,2013-08-23 11:31:00,
2013-08-23 06:36:00,48.6,45.8,30.16,ENE,73,0.0,0.0,90,0.00,,SCT,0.00,9.00,VWS V14.01,2013-08-23 11:36:00,
2013-08-23 06:41:00,48.6,45.8,30.16,ENE,73,0.0,0.0,90,0.00,,SCT,0.00,11.00,VWS V14.01,2013-08-23 11:41:00,
2013-08-23 06:46:00,48.7,46.2,30.16,ENE,73,0.0,0.0,91,0.00,,SCT,0.00,12.00,VWS V14.01,2013-08-23 11:46:00,
2013-08-23 06:51:00,48.6,45.8,30.17,ENE,73,0.0,1.0,90,0.00,,SCT,0.00,12.00,VWS V14.01,2013-08-23 11:51:00,
2013-08-23 06:56:00,48.7,46.2,30.17,ENE,73,0.0,0.0,91,0.00,,SCT,0.00,14.00,VWS V14.01,2013-08-23 11:56:00,
2013-08-23 07:01:00,48.7,46.2,30.17,ENE,73,0.0,0.0,91,0.00,,SCT,0.00,16.00,VWS V14.01,2013-08-23 12:01:00,
2013-08-23 07:06:00,48.8,46.3,30.17,ENE,73,0.0,0.0,91,0.00,,SCT,0.00,18.00,VWS V14.01,2013-08-23 12:06:00,
2013-08-23 07:11:00,49.0,46.5,30.17,ENE,73,0.0,0.0,91,0.00,,SCT,0.00,19.00,VWS V14.01,2013-08-23 12:11:00,
2013-08-23 07:16:00,49.0,46.5,30.17,ENE,73,0.0,0.0,91,0.00,,SCT,0.00,19.00,VWS V14.01,2013-08-23 12:16:00,
2013-08-23 07:21:00,49.2,46.7,30.17,ENE,73,0.0,0.0,91,0.00,,SCT,0.00,21.00,VWS V14.01,2013-08-23 12:21:00,
2013-08-23 07:26:00,49.3,46.8,30.17,ENE,73,0.0,0.0,91,0.00,,SCT,0.00,21.00,VWS V14.01,2013-08-23 12:26:00,
2013-08-23 07:31:00,49.4,46.9,30.17,ENE,73,0.0,0.0,91,0.00,,SCT,0.00,23.00,VWS V14.01,2013-08-23 12:31:00,
2013-08-23 07:36:00,49.6,47.4,30.17,ENE,73,0.0,0.0,92,0.00,,SCT,0.00,25.00,VWS V14.01,2013-08-23 12:36:00,
2013-08-23 07:41:00,49.9,47.7,30.17,ENE,73,0.0,0.0,92,0.00,,SCT,0.00,25.00,VWS V14.01,2013-08-23 12:41:00,
2013-08-23 07:46:00,50.2,48.0,30.17,ENE,73,0.0,0.0,92,0.00,,SCT,0.00,26.00,VWS V14.01,2013-08-23 12:46:00,
2013-08-23 07:51:00,50.5,48.3,30.17,ENE,74,0.0,0.0,92,0.00,,SCT,0.00,28.00,VWS V14.01,2013-08-23 12:51:00,
2013-08-23 07:56:00,50.8,48.6,30.17,ENE,74,0.0,0.0,92,0.00,,SCT,0.00,30.00,VWS V14.01,2013-08-23 12:56:00,
2013-08-23 08:01:00,51.2,49.2,30.17,ENE,74,0.0,0.0,93,0.00,,SCT,0.00,33.00,VWS V14.01,2013-08-23 13:01:00,
2013-08-23 08:06:00,51.5,49.5,30.17,East,94,0.0,0.0,93,0.00,,SCT,0.00,35.00,VWS V14.01,2013-08-23 13:06:00,
2013-08-23 08:11:00,51.8,49.8,30.17,East,94,0.0,0.0,93,0.00,,SCT,0.00,37.00,VWS V14.01,2013-08-23 13:11:00,
2013-08-23 08:16:00,52.2,50.2,30.17,East,94,0.0,0.0,93,0.00,,SCT,0.00,39.00,VWS V14.01,2013-08-23 13:16:00,
2013-08-23 08:21:00,52.6,50.6,30.17,SE,135,0.0,0.0,93,0.00,,SCT,0.00,40.00,VWS V14.01,2013-08-23 13:21:00,
2013-08-23 08:26:00,53.0,51.0,30.17,SSE,159,2.0,3.0,93,0.00,,SCT,0.00,42.00,VWS V14.01,2013-08-23 13:26:00,
2013-08-23 08:31:00,53.5,51.5,30.17,SSE,148,2.0,2.0,93,0.00,,SCT,0.00,44.00,VWS V14.01,2013-08-23 13:31:00,
2013-08-23 08:36:00,53.9,51.9,30.17,SSE,154,0.0,0.0,93,0.00,,SCT,0.00,47.00,VWS V14.01,2013-08-23 13:36:00,
2013-08-23 08:41:00,54.3,52.3,30.17,SE,146,3.0,5.0,93,0.00,,SCT,0.00,51.00,VWS V14.01,2013-08-23 13:41:00,
2013-08-23 08:47:00,54.8,52.8,30.17,SE,135,0.0,3.0,93,0.00,,SCT,0.00,308.00,VWS V14.01,2013-08-23 13:47:00,
2013-08-23 08:52:00,55.4,53.4,30.17,SE,141,0.0,0.0,93,0.00,,SCT,0.00,350.00,VWS V14.01,2013-08-23 13:52:00,
2013-08-23 08:57:00,56.2,53.9,30.17,South,182,0.0,0.0,92,0.00,,SCT,0.00,362.00,VWS V14.01,2013-08-23 13:57:00,
2013-08-23 09:02:00,56.9,54.6,30.17,East,98,2.0,2.0,92,0.00,,SCT,0.00,376.00,VWS V14.01,2013-08-23 14:02:00,
2013-08-23 09:07:00,57.8,55.2,30.17,SSE,167,0.0,0.0,91,0.00,,SCT,0.00,397.00,VWS V14.01,2013-08-23 14:07:00,
2013-08-23 09:12:00,58.5,55.3,30.17,South,186,0.0,0.0,89,0.00,,SCT,0.00,413.00,VWS V14.01,2013-08-23 14:12:00,
2013-08-23 09:17:00,59.3,55.4,30.17,SSW,195,0.0,0.0,87,0.00,,SCT,0.00,441.00,VWS V14.01,2013-08-23 14:17:00,
2013-08-23 09:22:00,60.3,55.8,30.16,South,190,0.0,0.0,85,0.00,,SCT,0.00,471.00,VWS V14.01,2013-08-23 14:22:00,
2013-08-23 09:27:00,61.4,56.5,30.16,South,178,0.0,0.0,84,0.00,,SCT,0.00,487.00,VWS V14.01,2013-08-23 14:27:00,
2013-08-23 09:32:00,62.3,56.4,30.16,SSE,159,0.0,0.0,81,0.00,,SCT,0.00,499.00,VWS V14.01,2013-08-23 14:32:00,
2013-08-23 09:37:00,62.9,56.3,30.16,SSE,164,3.0,4.0,79,0.00,,SCT,0.00,513.00,VWS V14.01,2013-08-23 14:37:00,
2013-08-23 09:42:00,63.6,56.6,30.17,SSW,205,2.0,3.0,78,0.00,,SCT,0.00,533.00,VWS V14.01,2013-08-23 14:42:00,
2013-08-23 09:47:00,64.2,56.1,30.16,South,180,0.0,0.0,75,0.00,,SCT,0.00,547.00,VWS V14.01,2013-08-23 14:47:00,
2013-08-23 09:52:00,64.8,56.7,30.16,WSW,240,2.0,3.0,75,0.00,,SCT,0.00,564.00,VWS V14.01,2013-08-23 14:52:00,
2013-08-23 09:57:00,65.3,56.8,30.16,SE,128,3.0,8.0,74,0.00,,SCT,0.00,578.00,VWS V14.01,2013-08-23 14:57:00,
2013-08-23 10:02:00,65.7,56.8,30.16,SE,137,0.0,4.0,73,0.00,,SCT,0.00,592.00,VWS V14.01,2013-08-23 15:02:00,
2013-08-23 10:07:00,66.2,57.3,30.16,SW,220,5.0,5.0,73,0.00,,SCT,0.00,598.00,VWS V14.01,2013-08-23 15:07:00,
2013-08-23 10:12:00,66.6,56.9,30.16,SW,221,1.0,3.0,71,0.00,,SCT,0.00,615.00,VWS V14.01,2013-08-23 15:12:00,
2013-08-23 10:17:00,67.0,56.5,30.16,SW,234,2.0,5.0,69,0.00,,SCT,0.00,631.00,VWS V14.01,2013-08-23 15:17:00,
2013-08-23 10:22:00,67.2,57.1,30.16,SSE,164,3.0,5.0,70,0.00,,SCT,0.00,638.00,VWS V14.01,2013-08-23 15:22:00,
2013-08-23 10:27:00,67.4,57.3,30.16,SSW,211,1.0,3.0,70,0.00,,SCT,0.00,643.00,VWS V14.01,2013-08-23 15:27:00,
2013-08-23 10:32:00,67.7,57.2,30.16,SW,226,0.0,2.0,69,0.00,,SCT,0.00,638.00,VWS V14.01,2013-08-23 15:32:00,
2013-08-23 10:37:00,68.0,57.1,30.16,SE,134,5.0,5.0,68,0.00,,SCT,0.00,668.00,VWS V14.01,2013-08-23 15:37:00,
2013-08-23 10:42:00,68.3,57.3,30.16,SSW,205,2.0,8.0,68,0.00,,SCT,0.00,687.00,VWS V14.01,2013-08-23 15:42:00,
2013-08-23 10:47:00,68.7,57.7,30.16,SE,142,2.0,4.0,68,0.00,,SCT,0.00,696.00,VWS V14.01,2013-08-23 15:47:00,
2013-08-23 10:52:00,69.2,58.2,30.15,South,171,0.0,0.0,68,0.00,,SCT,0.00,717.00,VWS V14.01,2013-08-23 15:52:00,
2013-08-23 10:57:00,69.6,58.2,30.15,South,184,0.0,5.0,67,0.00,,SCT,0.00,729.00,VWS V14.01,2013-08-23 15:57:00,
2013-08-23 11:02:00,70.0,58.1,30.15,SE,126,1.0,1.0,66,0.00,,SCT,0.00,731.00,VWS V14.01,2013-08-23 16:02:00,
2013-08-23 11:07:00,70.4,58.9,30.15,SE,138,2.0,3.0,67,0.00,,SCT,0.00,745.00,VWS V14.01,2013-08-23 16:07:00,
2013-08-23 11:12:00,70.9,58.1,30.15,WSW,241,4.0,4.0,64,0.00,,SCT,0.00,752.00,VWS V14.01,2013-08-23 16:12:00,
2013-08-23 11:17:00,71.2,58.4,30.15,SSW,194,2.0,3.0,64,0.00,,SCT,0.00,766.00,VWS V14.01,2013-08-23 16:17:00,
2013-08-23 11:22:00,71.3,58.1,30.15,SW,220,1.0,6.0,63,0.00,,SCT,0.00,773.00,VWS V14.01,2013-08-23 16:22:00,
2013-08-23 11:27:00,71.5,58.3,30.15,SW,220,3.0,4.0,63,0.00,,SCT,0.00,782.00,VWS V14.01,2013-08-23 16:27:00,
2013-08-23 11:32:00,71.8,60.3,30.14,SSW,194,0.0,0.0,67,0.00,,SCT,0.00,786.00,VWS V14.01,2013-08-23 16:32:00,
2013-08-23 11:37:00,72.3,58.6,30.14,WSW,251,1.0,3.0,62,0.00,,SCT,0.00,802.00,VWS V14.01,2013-08-23 16:37:00,
2013-08-23 11:42:00,72.5,57.4,30.14,SW,234,3.0,8.0,59,0.00,,SCT,0.00,810.00,VWS V14.01,2013-08-23 16:42:00,
2013-08-23 11:47:00,72.6,57.5,30.14,SSW,205,1.0,4.0,59,0.00,,SCT,0.00,817.00,VWS V14.01,2013-08-23 16:47:00,
2013-08-23 11:52:00,72.8,56.7,30.14,SW,223,3.0,4.0,57,0.00,,SCT,0.00,817.00,VWS V14.01,2013-08-23 16:52:00,
2013-08-23 11:57:00,72.9,56.3,30.14,WSW,240,3.0,3.0,56,0.00,,SCT,0.00,823.00,VWS V14.01,2013-08-23 16:57:00,
2013-08-23 12:03:00,73.1,56.5,30.14,SW,218,1.0,8.0,56,0.00,,SCT,0.00,842.00,VWS V14.01,2013-08-23 17:03:00,
2013-08-23 12:08:00,73.3,56.2,30.14,SE,130,0.0,7.0,55,0.00,,SCT,0.00,844.00,VWS V14.01,2013-08-23 17:08:00,
2013-08-23 12:13:00,73.8,56.1,30.14,WSW,244,1.0,1.0,54,0.00,,SCT,0.00,846.00,VWS V14.01,2013-08-23 17:13:00,
2013-08-23 12:18:00,74.3,55.6,30.14,SW,217,6.0,7.0,52,0.00,,SCT,0.00,851.00,VWS V14.01,2013-08-23 17:18:00,
2013-08-23 12:23:00,74.4,54.6,30.14,WSW,248,3.0,7.0,50,0.00,,SCT,0.00,856.00,VWS V14.01,2013-08-23 17:23:00,
2013-08-23 12:28:00,74.5,53.5,30.13,West,277,2.0,3.0,48,0.00,,SCT,0.00,858.00,VWS V14.01,2013-08-23 17:28:00,
2013-08-23 12:33:00,74.6,54.8,30.13,WSW,250,4.0,8.0,50,0.00,,SCT,0.00,863.00,VWS V14.01,2013-08-23 17:33:00,
2013-08-23 12:38:00,74.6,56.4,30.13,WSW,246,6.0,6.0,53,0.00,,SCT,0.00,865.00,VWS V14.01,2013-08-23 17:38:00,
2013-08-23 12:43:00,74.7,54.8,30.13,WSW,246,4.0,8.0,50,0.00,,SCT,0.00,870.00,VWS V14.01,2013-08-23 17:43:00,
2013-08-23 12:48:00,74.8,55.5,30.13,WSW,248,6.0,7.0,51,0.00,,SCT,0.00,874.00,VWS V14.01,2013-08-23 17:48:00,
2013-08-23 12:53:00,74.9,57.2,30.12,SSW,193,0.0,3.0,54,0.00,,SCT,0.00,874.00,VWS V14.01,2013-08-23 17:53:00,
2013-08-23 12:58:00,75.1,54.7,30.12,South,175,7.0,7.0,49,0.00,,SCT,0.00,867.00,VWS V14.01,2013-08-23 17:58:00,
2013-08-23 13:03:00,75.6,54.5,30.12,WSW,241,3.0,7.0,48,0.00,,SCT,0.00,872.00,VWS V14.01,2013-08-23 18:03:00,
2013-08-23 13:08:00,75.9,54.8,30.12,WSW,251,2.0,5.0,48,0.00,,SCT,0.00,875.00,VWS V14.01,2013-08-23 18:08:00,
2013-08-23 13:13:00,76.2,56.2,30.12,WSW,256,5.0,5.0,50,0.00,,SCT,0.00,875.00,VWS V14.01,2013-08-23 18:13:00,
2013-08-23 13:18:00,76.2,54.5,30.12,West,267,7.0,10.0,47,0.00,,SCT,0.00,863.00,VWS V14.01,2013-08-23 18:18:00,
2013-08-23 13:23:00,76.1,54.4,30.12,West,266,6.0,6.0,47,0.00,,SCT,0.00,872.00,VWS V14.01,2013-08-23 18:23:00,
2013-08-23 13:28:00,76.1,55.6,30.12,WSW,246,4.0,10.0,49,0.00,,SCT,0.00,867.00,VWS V14.01,2013-08-23 18:28:00,
2013-08-23 13:33:00,76.3,54.6,30.12,SW,236,7.0,10.0,47,0.00,,SCT,0.00,882.00,VWS V14.01,2013-08-23 18:33:00,
2013-08-23 13:38:00,76.3,54.6,30.12,WSW,248,3.0,8.0,47,0.00,,SCT,0.00,879.00,VWS V14.01,2013-08-23 18:38:00,
2013-08-23 13:43:00,76.5,53.6,30.12,SW,229,5.0,6.0,45,0.00,,SCT,0.00,891.00,VWS V14.01,2013-08-23 18:43:00,
2013-08-23 13:48:00,76.8,54.5,30.12,WSW,244,3.0,6.0,46,0.00,,SCT,0.00,856.00,VWS V14.01,2013-08-23 18:48:00,
2013-08-23 13:53:00,76.7,55.0,30.12,WSW,242,10.0,11.0,47,0.00,,SCT,0.00,777.00,VWS V14.01,2013-08-23 18:53:00,
2013-08-23 13:58:00,76.5,52.4,30.12,WSW,239,3.0,8.0,43,0.00,,SCT,0.00,803.00,VWS V14.01,2013-08-23 18:58:00,
2013-08-23 14:03:00,76.6,53.7,30.12,WSW,244,4.0,11.0,45,0.00,,SCT,0.00,761.00,VWS V14.01,2013-08-23 19:03:00,
2013-08-23 14:08:00,76.7,51.9,30.11,WSW,246,1.0,8.0,42,0.00,,SCT,0.00,877.00,VWS V14.01,2013-08-23 19:08:00,
2013-08-23 14:13:00,76.8,53.3,30.11,West,260,4.0,8.0,44,0.00,,SCT,0.00,858.00,VWS V14.01,2013-08-23 19:13:00,
2013-08-23 14:18:00,77.0,53.4,30.10,West,262,4.0,6.0,44,0.00,,SCT,0.00,754.00,VWS V14.01,2013-08-23 19:18:00,
2013-08-23 14:23:00,77.2,54.2,30.11,WSW,239,7.0,13.0,45,0.00,,SCT,0.00,686.00,VWS V14.01,2013-08-23 19:23:00,
2013-08-23 14:28:00,77.2,52.4,30.10,WSW,239,3.0,7.0,42,0.00,,SCT,0.00,707.00,VWS V14.01,2013-08-23 19:28:00,
2013-08-23 14:33:00,77.4,53.2,30.10,SW,232,1.0,5.0,43,0.00,,SCT,0.00,809.00,VWS V14.01,2013-08-23 19:33:00,
2013-08-23 14:38:00,77.6,52.1,30.10,SW,226,2.0,3.0,41,0.00,,SCT,0.00,838.00,VWS V14.01,2013-08-23 19:38:00,
2013-08-23 14:43:00,78.0,55.0,30.10,West,277,9.0,9.0,45,0.00,,SCT,0.00,828.00,VWS V14.01,2013-08-23 19:43:00,
2013-08-23 14:48:00,78.2,55.1,30.09,West,275,0.0,2.0,45,0.00,,SCT,0.00,810.00,VWS V14.01,2013-08-23 19:48:00,
2013-08-23 14:53:00,78.4,54.7,30.09,SSW,206,3.0,6.0,44,0.00,,SCT,0.00,814.00,VWS V14.01,2013-08-23 19:53:00,
2013-08-23 14:58:00,78.7,51.7,30.09,SSW,209,1.0,4.0,39,0.00,,SCT,0.00,809.00,VWS V14.01,2013-08-23 19:58:00,
2013-08-23 15:03:00,79.1,54.1,30.09,West,269,5.0,9.0,42,0.00,,SCT,0.00,803.00,VWS V14.01,2013-08-23 20:03:00,
2013-08-23 15:08:00,79.1,57.2,30.09,WSW,250,2.0,9.0,47,0.00,,SCT,0.00,789.00,VWS V14.01,2013-08-23 20:08:00,
2013-08-23 15:13:00,79.0,54.0,30.09,WSW,240,6.0,9.0,42,0.00,,SCT,0.00,782.00,VWS V14.01,2013-08-23 20:13:00,
2013-08-23 15:19:00,79.0,54.6,30.09,West,265,6.0,8.0,43,0.00,,SCT,0.00,773.00,VWS V14.01,2013-08-23 20:19:00,
2013-08-23 15:24:00,78.9,56.4,30.09,WSW,246,4.0,8.0,46,0.00,,SCT,0.00,761.00,VWS V14.01,2013-08-23 20:24:00,
2013-08-23 15:29:00,78.9,54.5,30.08,SW,214,3.0,9.0,43,0.00,,SCT,0.00,758.00,VWS V14.01,2013-08-23 20:29:00,
2013-08-23 15:34:00,79.1,54.1,30.08,SW,235,4.0,5.0,42,0.00,,SCT,0.00,737.00,VWS V14.01,2013-08-23 20:34:00,
2013-08-23 15:39:00,79.4,55.0,30.08,WSW,238,3.0,8.0,43,0.00,,SCT,0.00,724.00,VWS V14.01,2013-08-23 20:39:00,
2013-08-23 15:44:00,79.5,55.7,30.08,WSW,249,2.0,10.0,44,0.00,,SCT,0.00,717.00,VWS V14.01,2013-08-23 20:44:00,
2013-08-23 15:49:00,79.5,55.1,30.08,West,261,5.0,5.0,43,0.00,,SCT,0.00,705.00,VWS V14.01,2013-08-23 20:49:00,
2013-08-23 15:54:00,79.6,55.2,30.08,WSW,254,6.0,8.0,43,0.00,,SCT,0.00,694.00,VWS V14.01,2013-08-23 20:54:00,
2013-08-23 15:59:00,79.6,56.4,30.07,West,264,3.0,8.0,45,0.00,,SCT,0.00,682.00,VWS V14.01,2013-08-23 20:59:00,
2013-08-23 16:04:00,79.7,55.9,30.08,WSW,257,7.0,10.0,44,0.00,,SCT,0.00,675.00,VWS V14.01,2013-08-23 21:04:00,
2013-08-23 16:09:00,79.5,54.4,30.07,West,279,6.0,11.0,42,0.00,,SCT,0.00,663.00,VWS V14.01,2013-08-23 21:09:00,
2013-08-23 16:14:00,79.4,54.3,30.07,SW,235,6.0,11.0,42,0.00,,SCT,0.00,649.00,VWS V14.01,2013-08-23 21:14:00,
2013-08-23 16:19:00,79.4,54.3,30.07,West,270,3.0,9.0,42,0.00,,SCT,0.00,633.00,VWS V14.01,2013-08-23 21:19:00,
2013-08-23 16:24:00,79.5,53.8,30.07,West,261,4.0,7.0,41,0.00,,SCT,0.00,610.00,VWS V14.01,2013-08-23 21:24:00,
2013-08-23 16:29:00,79.7,57.1,30.07,WSW,252,7.0,11.0,46,0.00,,SCT,0.00,606.00,VWS V14.01,2013-08-23 21:29:00,
2013-08-23 16:34:00,79.7,54.6,30.07,WSW,250,6.0,7.0,42,0.00,,SCT,0.00,589.00,VWS V14.01,2013-08-23 21:34:00,
2013-08-23 16:39:00,79.7,55.2,30.07,SW,236,2.0,6.0,43,0.00,,SCT,0.00,580.00,VWS V14.01,2013-08-23 21:39:00,
2013-08-23 16:44:00,79.9,56.7,30.07,West,259,7.0,8.0,45,0.00,,SCT,0.00,563.00,VWS V14.01,2013-08-23 21:44:00,
2013-08-23 16:49:00,79.9,55.4,30.07,WSW,254,5.0,11.0,43,0.00,,SCT,0.00,533.00,VWS V14.01,2013-08-23 21:49:00,
2013-08-23 16:54:00,79.9,54.8,30.07,WSW,238,11.0,11.0,42,0.00,,SCT,0.00,533.00,VWS V14.01,2013-08-23 21:54:00,
2013-08-23 16:59:00,80.0,56.2,30.07,WSW,247,3.0,5.0,44,0.00,,SCT,0.00,512.00,VWS V14.01,2013-08-23 21:59:00,
2013-08-23 17:04:00,80.0,54.9,30.07,WSW,246,5.0,12.0,42,0.00,,SCT,0.00,503.00,VWS V14.01,2013-08-23 22:04:00,
2013-08-23 17:09:00,80.0,56.2,30.07,WSW,252,3.0,7.0,44,0.00,,SCT,0.00,476.00,VWS V14.01,2013-08-23 22:09:00,
2013-08-23 17:14:00,80.1,56.9,30.07,WSW,245,4.0,8.0,45,0.00,,SCT,0.00,461.00,VWS V14.01,2013-08-23 22:14:00,
2013-08-23 17:19:00,80.1,54.3,30.07,West,270,4.0,7.0,41,0.00,,SCT,0.00,455.00,VWS V14.01,2013-08-23 22:19:00,
2013-08-23 17:24:00,80.2,56.3,30.07,West,277,7.0,7.0,44,0.00,,SCT,0.00,413.00,VWS V14.01,2013-08-23 22:24:00,
2013-08-23 17:29:00,80.2,53.7,30.07,WSW,251,2.0,4.0,40,0.00,,SCT,0.00,371.00,VWS V14.01,2013-08-23 22:29:00,
2013-08-23 17:34:00,80.4,55.2,30.07,West,261,2.0,5.0,42,0.00,,SCT,0.00,387.00,VWS V14.01,2013-08-23 22:34:00,
2013-08-23 17:39:00,80.4,54.6,30.07,WSW,246,3.0,8.0,41,0.00,,SCT,0.00,362.00,VWS V14.01,2013-08-23 22:39:00,
2013-08-23 17:44:00,80.4,55.9,30.07,WSW,239,5.0,6.0,43,0.00,,SCT,0.00,359.00,VWS V14.01,2013-08-23 22:44:00,
2013-08-23 17:49:00,80.4,54.6,30.07,WSW,242,3.0,6.0,41,0.00,,SCT,0.00,353.00,VWS V14.01,2013-08-23 22:49:00,
2013-08-23 17:54:00,80.4,55.2,30.07,SW,236,2.0,9.0,42,0.00,,SCT,0.00,353.00,VWS V14.01,2013-08-23 22:54:00,
2013-08-23 17:59:00,80.5,56.6,30.07,WSW,250,4.0,5.0,44,0.00,,SCT,0.00,278.00,VWS V14.01,2013-08-23 22:59:00,
2013-08-23 18:04:00,80.5,56.6,30.07,WSW,240,1.0,4.0,44,0.00,,SCT,0.00,308.00,VWS V14.01,2013-08-23 23:04:00,
2013-08-23 18:09:00,80.5,57.2,30.07,WSW,240,3.0,5.0,45,0.00,,SCT,0.00,283.00,VWS V14.01,2013-08-23 23:09:00,
2013-08-23 18:14:00,80.4,57.1,30.07,WSW,240,2.0,6.0,45,0.00,,SCT,0.00,262.00,VWS V14.01,2013-08-23 23:14:00,
2013-08-23 18:19:00,80.3,57.7,30.07,WSW,240,0.0,5.0,46,0.00,,SCT,0.00,246.00,VWS V14.01,2013-08-23 23:19:00,
2013-08-23 18:24:00,80.3,58.8,30.07,WSW,240,0.0,2.0,48,0.00,,SCT,0.00,236.00,VWS V14.01,2013-08-23 23:24:00,
2013-08-23 18:29:00,80.1,58.7,30.07,WSW,240,0.0,0.0,48,0.00,,SCT,0.00,192.00,VWS V14.01,2013-08-23 23:29:00,
2013-08-23 18:35:00,79.8,59.0,30.07,WSW,240,0.0,0.0,49,0.00,,SCT,0.00,160.00,VWS V14.01,2013-08-23 23:35:00,
2013-08-23 18:40:00,79.3,58.5,30.06,WSW,240,0.0,0.0,49,0.00,,SCT,0.00,105.00,VWS V14.01,2013-08-23 23:40:00,
2013-08-23 18:45:00,78.7,59.1,30.06,WSW,240,0.0,0.0,51,0.00,,SCT,0.00,160.00,VWS V14.01,2013-08-23 23:45:00,
2013-08-23 18:50:00,78.2,58.6,30.06,WSW,240,0.0,0.0,51,0.00,,SCT,0.00,141.00,VWS V14.01,2013-08-23 23:50:00,
2013-08-23 18:55:00,77.8,58.8,30.06,WSW,240,0.0,0.0,52,0.00,,SCT,0.00,120.00,VWS V14.01,2013-08-23 23:55:00,
2013-08-23 19:00:00,77.3,58.3,30.06,WSW,240,0.0,0.0,52,0.00,,SCT,0.00,113.00,VWS V14.01,2013-08-24 00:00:00,
2013-08-23 19:05:00,77.0,58.6,30.06,WSW,240,0.0,0.0,53,0.00,,SCT,0.00,105.00,VWS V14.01,2013-08-24 00:05:00,
2013-08-23 19:10:00,76.6,58.2,30.06,WSW,240,0.0,0.0,53,0.00,,SCT,0.00,93.00,VWS V14.01,2013-08-24 00:10:00,
2013-08-23 19:15:00,76.2,57.8,30.06,WSW,240,0.0,0.0,53,0.00,,SCT,0.00,83.00,VWS V14.01,2013-08-24 00:15:00,
2013-08-23 19:20:00,75.9,58.1,30.05,WSW,240,0.0,0.0,54,0.00,,SCT,0.00,49.00,VWS V14.01,2013-08-24 00:20:00,
2013-08-23 19:25:00,75.5,58.2,30.05,WSW,240,0.0,0.0,55,0.00,,SCT,0.00,32.00,VWS V14.01,2013-08-24 00:25:00,
2013-08-23 19:30:00,75.2,57.9,30.05,WSW,240,0.0,0.0,55,0.00,,SCT,0.00,26.00,VWS V14.01,2013-08-24 00:30:00,
2013-08-23 19:35:00,74.8,58.6,30.05,WSW,240,0.0,0.0,57,0.00,,SCT,0.00,25.00,VWS V14.01,2013-08-24 00:35:00,
2013-08-23 19:40:00,74.4,58.7,30.05,WSW,240,0.0,0.0,58,0.00,,SCT,0.00,21.00,VWS V14.01,2013-08-24 00:40:00,
2013-08-23 19:45:00,73.9,58.2,30.05,WSW,240,0.0,0.0,58,0.00,,SCT,0.00,18.00,VWS V14.01,2013-08-24 00:45:00,
2013-08-23 19:50:00,73.3,58.1,30.05,WSW,240,0.0,0.0,59,0.00,,SCT,0.00,12.00,VWS V14.01,2013-08-24 00:50:00,
2013-08-23 19:55:00,72.6,58.4,30.05,WSW,240,0.0,0.0,61,0.00,,SCT,0.00,9.00,VWS V14.01,2013-08-24 00:55:00,
2013-08-23 20:00:00,72.0,58.3,30.05,WSW,240,0.0,0.0,62,0.00,,SCT,0.00,0.00,VWS V14.01,2013-08-24 01:00:00,
2013-08-23 20:05:00,71.4,58.2,30.05,WSW,240,0.0,0.0,63,0.00,,SCT,0.00,0.00,VWS V14.01,2013-08-24 01:05:00,
2013-08-23 20:10:00,70.9,58.1,30.05,WSW,240,0.0,0.0,64,0.00,,SCT,0.00,0.00,VWS V14.01,2013-08-24 01:10:00,
2013-08-23 20:15:00,70.4,58.1,30.05,WSW,240,0.0,0.0,65,0.00,,SCT,0.00,0.00,VWS V14.01,2013-08-24 01:15:00,
2013-08-23 20:20:00,69.7,57.8,30.06,WSW,240,0.0,0.0,66,0.00,,SCT,0.00,0.00,VWS V14.01,2013-08-24 01:20:00,
2013-08-23 20:25:00,69.2,58.2,30.06,WSW,240,0.0,0.0,68,0.00,,SCT,0.00,0.00,VWS V14.01,2013-08-24 01:25:00,
2013-08-23 20:30:00,68.5,57.5,30.06,WSW,240,0.0,0.0,68,0.00,,SCT,0.00,0.00,VWS V14.01,2013-08-24 01:30:00,
2013-08-23 20:35:00,67.9,57.4,30.06,WSW,240,0.0,0.0,69,0.00,,SCT,0.00,0.00,VWS V14.01,2013-08-24 01:35:00,
2013-08-23 20:40:00,67.4,57.7,30.06,WSW,240,0.0,0.0,71,0.00,,SCT,0.00,0.00,VWS V14.01,2013-08-24 01:40:00,
2013-08-23 20:45:00,66.8,57.5,30.06,WSW,240,0.0,0.0,72,0.00,,SCT,0.00,0.00,VWS V14.01,2013-08-24 01:45:00,
2013-08-23 20:50:00,66.4,57.1,30.06,WSW,240,0.0,0.0,72,0.00,,SCT,0.00,0.00,VWS V14.01,2013-08-24 01:50:00,
2013-08-23 20:55:00,66.1,57.2,30.06,WSW,240,0.0,0.0,73,0.00,,SCT,0.00,0.00,VWS V14.01,2013-08-24 01:55:00,
2013-08-23 21:00:00,65.9,57.4,30.06,WSW,240,0.0,0.0,74,0.00,,SCT,0.00,0.00,VWS V14.01,2013-08-24 02:00:00,
2013-08-23 21:05:00,65.6,57.5,30.07,WSW,240,0.0,0.0,75,0.00,,SCT,0.00,0.00,VWS V14.01,2013-08-24 02:05:00,
2013-08-23 21:10:00,65.3,57.5,30.07,WSW,240,0.0,0.0,76,0.00,,SCT,0.00,0.00,VWS V14.01,2013-08-24 02:10:00,
2013-08-23 21:15:00,64.9,57.5,30.07,WSW,240,0.0,0.0,77,0.00,,SCT,0.00,0.00,VWS V14.01,2013-08-24 02:15:00,
2013-08-23 21:20:00,64.5,57.5,30.07,WSW,240,0.0,0.0,78,0.00,,SCT,0.00,0.00,VWS V14.01,2013-08-24 02:20:00,
2013-08-23 21:25:00,64.2,57.6,30.07,WSW,240,0.0,0.0,79,0.00,,SCT,0.00,0.00,VWS V14.01,2013-08-24 02:25:00,
2013-08-23 21:30:00,63.9,57.3,30.07,WSW,240,0.0,0.0,79,0.00,,SCT,0.00,0.00,VWS V14.01,2013-08-24 02:30:00,
2013-08-23 21:35:00,63.7,57.4,30.07,WSW,240,0.0,0.0,80,0.00,,SCT,0.00,0.00,VWS V14.01,2013-08-24 02:35:00,
2013-08-23 21:41:00,63.6,57.3,30.07,WSW,240,0.0,0.0,80,0.00,,SCT,0.00,0.00,VWS V14.01,2013-08-24 02:41:00,
2013-08-23 21:46:00,63.5,57.2,30.07,WSW,240,0.0,0.0,80,0.00,,SCT,0.00,0.00,VWS V14.01,2013-08-24 02:46:00,
2013-08-23 21:51:00,63.4,57.1,30.07,WSW,240,0.0,0.0,80,0.00,,SCT,0.00,0.00,VWS V14.01,2013-08-24 02:51:00,
2013-08-23 21:56:00,63.2,56.9,30.08,WSW,240,0.0,0.0,80,0.00,,SCT,0.00,0.00,VWS V14.01,2013-08-24 02:56:00,
2013-08-23 22:01:00,63.1,56.8,30.08,WSW,240,0.0,0.0,80,0.00,,SCT,0.00,0.00,VWS V14.01,2013-08-24 03:01:00,
2013-08-23 22:06:00,62.9,56.6,30.08,WSW,240,0.0,0.0,80,0.00,,SCT,0.00,0.00,VWS V14.01,2013-08-24 03:06:00,
2013-08-23 22:11:00,62.8,56.9,30.08,WSW,240,0.0,0.0,81,0.00,,SCT,0.00,0.00,VWS V14.01,2013-08-24 03:11:00,
2013-08-23 22:16:00,62.8,56.9,30.08,WSW,240,0.0,0.0,81,0.00,,SCT,0.00,0.00,VWS V14.01,2013-08-24 03:16:00,
2013-08-23 22:21:00,62.8,56.9,30.07,WSW,240,0.0,1.0,81,0.00,,SCT,0.00,0.00,VWS V14.01,2013-08-24 03:21:00,
2013-08-23 22:26:00,62.7,56.8,30.07,WSW,240,0.0,0.0,81,0.00,,SCT,0.00,0.00,VWS V14.01,2013-08-24 03:26:00,
2013-08-23 22:31:00,62.6,56.7,30.07,WSW,240,0.0,0.0,81,0.00,,SCT,0.00,0.00,VWS V14.01,2013-08-24 03:31:00,
2013-08-23 22:36:00,62.5,56.6,30.07,WSW,240,0.0,0.0,81,0.00,,SCT,0.00,0.00,VWS V14.01,2013-08-24 03:36:00,
2013-08-23 22:41:00,62.5,56.6,30.07,WSW,240,0.0,0.0,81,0.00,,SCT,0.00,0.00,VWS V14.01,2013-08-24 03:41:00,
2013-08-23 22:46:00,62.5,56.6,30.07,WSW,240,0.0,0.0,81,0.00,,SCT,0.00,0.00,VWS V14.01,2013-08-24 03:46:00,
2013-08-23 22:51:00,62.5,56.9,30.07,WSW,240,0.0,0.0,82,0.00,,SCT,0.00,0.00,VWS V14.01,2013-08-24 03:51:00,
2013-08-23 22:56:00,62.5,56.9,30.07,WSW,240,0.0,0.0,82,0.00,,SCT,0.00,0.00,VWS V14.01,2013-08-24 03:56:00,
2013-08-23 23:01:00,62.5,56.9,30.07,WSW,240,0.0,0.0,82,0.00,,SCT,0.00,0.00,VWS V14.01,2013-08-24 04:01:00,
2013-08-23 23:02:00,62.5,56.9,30.07,WSW,240,0.0,0.0,82,0.00,,SCT,0.00,0.00,VWS V14.01,2013-08-24 04:02:00,
2013-08-23 23:03:00,62.5,56.9,30.07,WSW,240,0.0,0.0,82,0.00,,SCT,0.00,0.00,VWS V14.01,2013-08-24 04:03:00,
2013-08-23 23:04:00,62.5,56.9,30.07,WSW,240,0.0,0.0,82,0.00,,SCT,0.00,0.00,VWS V14.01,2013-08-24 04:04:00,
2013-08-23 23:09:00,62.5,56.9,30.07,WSW,240,0.0,0.0,82,0.00,,SCT,0.00,0.00,VWS V14.01,2013-08-24 04:09:00,
2013-08-23 23:14:00,62.5,56.9,30.07,WSW,240,0.0,0.0,82,0.00,,SCT,0.00,0.00,VWS V14.01,2013-08-24 04:14:00,
2013-08-23 23:19:00,62.6,57.0,30.07,WSW,240,0.0,0.0,82,0.00,,SCT,0.00,0.00,VWS V14.01,2013-08-24 04:19:00,
2013-08-23 23:24:00,62.7,57.5,30.07,SW,236,1.0,1.0,83,0.00,,SCT,0.00,0.00,VWS V14.01,2013-08-24 04:24:00,
2013-08-23 23:29:00,62.8,57.6,30.07,SW,236,0.0,0.0,83,0.00,,SCT,0.00,0.00,VWS V14.01,2013-08-24 04:29:00,
2013-08-23 23:34:00,62.9,57.7,30.07,SW,236,0.0,0.0,83,0.00,,SCT,0.00,0.00,VWS V14.01,2013-08-24 04:34:00,
2013-08-23 23:39:00,63.0,57.8,30.07,SW,236,0.0,0.0,83,0.00,,SCT,0.00,0.00,VWS V14.01,2013-08-24 04:39:00,
2013-08-23 23:44:00,63.1,58.2,30.07,SW,236,0.0,0.0,84,0.00,,SCT,0.00,0.00,VWS V14.01,2013-08-24 04:44:00,
2013-08-23 23:49:00,63.2,58.3,30.07,SSW,211,0.0,4.0,84,0.00,,SCT,0.00,0.00,VWS V14.01,2013-08-24 04:49:00,
2013-08-23 23:54:00,63.2,58.3,30.07,SSW,211,0.0,0.0,84,0.00,,SCT,0.00,0.00,VWS V14.01,2013-08-24 04:54:00,
2013-08-23 23:59:00,63.3,58.4,30.08,SSW,211,0.0,0.0,84,0.00,,SCT,0.00,0.00,VWS V14.01,2013-08-24 04:59:00,